Time;durP1;ratioP1;P1;durP2;ratioP2;P2;SDS_P1;SDS_P2;PMS_P1;PMS_P2;Temp;Humidity;BMP_temperature;BMP_pressure;BME280_temperature;BME280_humidity;BME280_pressure;Samples;Min_cycle;Max_cycle;Signal;HPM_P1;HPM_P2
2023/05/13 00:00:40;;;;;;;6.15;3.58;;;;;;;;;;4969898;28;20425;-78
2023/05/13 00:03:06;;;;;;;7.43;4.40;;;;;;;;;;4968148;28;20037;-79
2023/05/13 00:05:32;;;;;;;7.50;3.50;;;;;;;;;;4968859;28;20034;-76
2023/05/13 00:08:05;;;;;;;7.63;4.43;;;;;;;;;;4971629;28;20031;-80
2023/05/13 00:10:42;;;;;;;7.53;4.30;;;;;;;;;;4970210;28;20023;-79
2023/05/13 00:13:08;;;;;;;8.98;4.18;;;;;;;;;;4967615;28;20023;-78
2023/05/13 00:15:34;;;;;;;7.85;4.15;;;;;;;;;;4964966;28;20041;-79
2023/05/13 00:18:00;;;;;;;8.20;3.80;;;;;;;;;;4968117;28;20014;-79
2023/05/13 00:20:26;;;;;;;9.23;4.57;;;;;;;;;;4951958;28;20477;-79
2023/05/13 00:22:52;;;;;;;6.18;3.45;;;;;;;;;;4952020;28;20038;-79
2023/05/13 00:25:18;;;;;;;7.68;4.40;;;;;;;;;;4969325;28;20031;-79
2023/05/13 00:27:44;;;;;;;12.38;4.05;;;;;;;;;;4963330;28;20038;-78
2023/05/13 00:30:10;;;;;;;8.57;3.80;;;;;;;;;;4967257;28;20023;-78
2023/05/13 00:32:36;;;;;;;11.40;5.00;;;;;;;;;;4968703;28;20030;-78
2023/05/13 00:35:02;;;;;;;10.57;3.22;;;;;;;;;;4953349;28;20046;-78
2023/05/13 00:37:28;;;;;;;9.02;3.85;;;;;;;;;;4969780;28;20497;-78
2023/05/13 00:39:54;;;;;;;8.02;3.75;;;;;;;;;;4968972;28;20389;-79
2023/05/13 00:42:20;;;;;;;7.18;3.83;;;;;;;;;;4968034;28;20026;-79
2023/05/13 00:44:46;;;;;;;7.72;5.03;;;;;;;;;;4968570;28;20030;-79
2023/05/13 00:47:13;;;;;;;10.07;5.28;;;;;;;;;;4952509;28;20057;-78
2023/05/13 00:49:39;;;;;;;10.98;4.63;;;;;;;;;;4965056;28;20508;-79
2023/05/13 00:52:05;;;;;;;8.45;3.40;;;;;;;;;;4966800;28;20586;-79
2023/05/13 00:54:32;;;;;;;11.75;4.68;;;;;;;;;;4963845;28;20027;-79
2023/05/13 00:56:59;;;;;;;8.57;4.75;;;;;;;;;;4949507;28;20050;-78
2023/05/13 00:59:26;;;;;;;6.28;4.28;;;;;;;;;;4946933;28;20440;-78
2023/05/13 01:02:07;;;;;;;8.60;4.82;;;;;;;;;;4969743;28;20027;-77
2023/05/13 01:04:50;;;;;;;6.88;4.30;;;;;;;;;;4966411;28;20497;-79
2023/05/13 01:07:19;;;;;;;8.13;4.10;;;;;;;;;;4966409;28;20448;-79
2023/05/13 01:09:48;;;;;;;8.13;4.38;;;;;;;;;;4963387;28;20074;-79
2023/05/13 01:12:19;;;;;;;7.03;4.03;;;;;;;;;;4950250;28;20105;-79
2023/05/13 01:14:49;;;;;;;8.57;3.63;;;;;;;;;;4946105;28;20074;-80
2023/05/13 01:17:17;;;;;;;8.07;4.57;;;;;;;;;;4951417;28;20030;-79
2023/05/13 01:19:46;;;;;;;8.85;4.13;;;;;;;;;;4968684;28;20525;-79
2023/05/13 01:22:13;;;;;;;10.48;4.57;;;;;;;;;;4967205;28;20015;-79
2023/05/13 01:24:38;;;;;;;9.15;5.28;;;;;;;;;;4968276;28;20027;-79
2023/05/13 01:27:05;;;;;;;7.75;4.30;;;;;;;;;;4950436;28;20049;-79
2023/05/13 01:29:31;;;;;;;8.07;4.28;;;;;;;;;;4967910;28;20022;-79
2023/05/13 01:31:58;;;;;;;6.75;4.78;;;;;;;;;;4967193;28;20031;-79
2023/05/13 01:34:24;;;;;;;7.35;4.00;;;;;;;;;;4950836;28;20433;-79
2023/05/13 01:36:50;;;;;;;9.52;4.97;;;;;;;;;;4967285;28;20035;-78
2023/05/13 01:39:18;;;;;;;8.75;4.97;;;;;;;;;;4952329;28;20023;-78
2023/05/13 01:41:44;;;;;;;9.02;4.53;;;;;;;;;;4952050;28;20027;-81
2023/05/13 01:44:13;;;;;;;7.65;4.75;;;;;;;;;;4970554;28;20039;-79
2023/05/13 01:46:39;;;;;;;8.65;5.53;;;;;;;;;;4966913;28;20509;-80
2023/05/13 01:49:06;;;;;;;12.63;4.97;;;;;;;;;;4952597;28;20018;-80
2023/05/13 01:51:32;;;;;;;13.30;4.60;;;;;;;;;;4961260;28;20035;-78
2023/05/13 01:53:58;;;;;;;9.35;5.20;;;;;;;;;;4949506;28;20560;-79
2023/05/13 01:56:25;;;;;;;10.35;4.38;;;;;;;;;;4965767;28;20023;-78
2023/05/13 01:58:50;;;;;;;10.18;4.85;;;;;;;;;;4945012;28;20157;-80
2023/05/13 02:01:18;;;;;;;9.25;5.35;;;;;;;;;;4961685;28;20476;-80
2023/05/13 02:03:44;;;;;;;11.55;4.38;;;;;;;;;;4955635;28;20034;-79
2023/05/13 02:06:10;;;;;;;7.82;3.42;;;;;;;;;;4974546;28;20041;-79
2023/05/13 02:08:36;;;;;;;11.27;5.90;;;;;;;;;;4977954;28;20027;-82
2023/05/13 02:11:02;;;;;;;9.73;4.32;;;;;;;;;;4965559;28;20090;-80
2023/05/13 02:13:28;;;;;;;8.82;5.63;;;;;;;;;;4967958;28;20398;-79
2023/05/13 02:15:54;;;;;;;7.05;4.15;;;;;;;;;;4975708;28;20398;-79
2023/05/13 02:18:21;;;;;;;8.95;4.88;;;;;;;;;;4976038;28;20027;-80
2023/05/13 02:20:47;;;;;;;9.10;6.47;;;;;;;;;;4975718;28;20030;-78
2023/05/13 02:23:14;;;;;;;10.75;5.57;;;;;;;;;;4970424;28;20051;-79
2023/05/13 02:25:43;;;;;;;6.82;4.10;;;;;;;;;;4973778;28;20024;-79
2023/05/13 02:28:09;;;;;;;8.43;4.10;;;;;;;;;;4975197;28;20122;-79
2023/05/13 02:30:35;;;;;;;7.47;5.22;;;;;;;;;;4959037;28;20030;-78
2023/05/13 02:33:01;;;;;;;8.45;5.20;;;;;;;;;;4967600;28;20037;-81
2023/05/13 02:35:29;;;;;;;7.50;4.82;;;;;;;;;;4968460;28;20046;-78
2023/05/13 02:37:56;;;;;;;9.63;5.35;;;;;;;;;;4966968;28;20034;-79
2023/05/13 02:40:22;;;;;;;8.05;5.22;;;;;;;;;;4970927;28;20019;-79
2023/05/13 02:42:48;;;;;;;9.45;4.47;;;;;;;;;;4972302;28;20023;-77
2023/05/13 02:45:14;;;;;;;9.63;5.32;;;;;;;;;;4963380;28;20046;-79
2023/05/13 02:47:41;;;;;;;9.30;6.10;;;;;;;;;;4945151;28;20385;-78
2023/05/13 02:50:08;;;;;;;9.43;4.50;;;;;;;;;;4960461;28;20031;-79
2023/05/13 02:52:35;;;;;;;10.20;5.35;;;;;;;;;;4948787;28;20041;-78
2023/05/13 02:55:01;;;;;;;11.80;5.97;;;;;;;;;;4954094;28;20030;-79
2023/05/13 02:57:27;;;;;;;8.50;6.00;;;;;;;;;;4965663;28;20394;-77
2023/05/13 02:59:53;;;;;;;7.78;5.43;;;;;;;;;;4967127;28;20020;-77
2023/05/13 03:02:19;;;;;;;9.27;4.85;;;;;;;;;;4965919;28;20030;-78
2023/05/13 03:04:46;;;;;;;9.48;4.95;;;;;;;;;;4955857;28;20035;-79
2023/05/13 03:07:12;;;;;;;10.18;5.32;;;;;;;;;;4960945;28;20070;-80
2023/05/13 03:09:40;;;;;;;7.85;5.22;;;;;;;;;;4972148;28;20027;-78
2023/05/13 03:12:07;;;;;;;11.40;5.85;;;;;;;;;;4967380;28;20023;-78
2023/05/13 03:14:37;;;;;;;9.55;6.43;;;;;;;;;;4955038;28;20030;-79
2023/05/13 03:17:03;;;;;;;11.38;6.30;;;;;;;;;;4966221;28;20054;-79
2023/05/13 03:19:29;;;;;;;8.27;5.43;;;;;;;;;;4960005;28;20019;-79
2023/05/13 03:21:55;;;;;;;11.50;6.47;;;;;;;;;;4949056;28;20046;-78
2023/05/13 03:24:21;;;;;;;9.57;6.75;;;;;;;;;;4962881;28;20053;-77
2023/05/13 03:26:47;;;;;;;13.55;7.63;;;;;;;;;;4958604;28;20027;-77
2023/05/13 03:29:14;;;;;;;13.27;7.47;;;;;;;;;;4944688;28;20429;-79
2023/05/13 03:31:40;;;;;;;10.25;6.85;;;;;;;;;;4971710;28;20386;-79
2023/05/13 03:34:06;;;;;;;9.80;6.10;;;;;;;;;;4959502;28;20105;-79
2023/05/13 03:36:32;;;;;;;12.60;6.05;;;;;;;;;;4954937;28;20126;-79
2023/05/13 03:38:58;;;;;;;11.73;5.28;;;;;;;;;;4960508;28;20075;-79
2023/05/13 03:41:24;;;;;;;10.93;7.40;;;;;;;;;;4965262;28;20059;-79
2023/05/13 03:43:50;;;;;;;11.63;6.43;;;;;;;;;;4938350;28;20031;-78
2023/05/13 03:46:16;;;;;;;8.93;5.63;;;;;;;;;;4959187;28;20027;-79
2023/05/13 03:48:42;;;;;;;13.63;7.68;;;;;;;;;;4953139;28;20598;-80
2023/05/13 03:51:08;;;;;;;13.45;8.20;;;;;;;;;;4969594;28;20041;-78
2023/05/13 03:53:35;;;;;;;10.23;7.15;;;;;;;;;;4961480;28;20690;-79
2023/05/13 03:56:01;;;;;;;8.20;5.43;;;;;;;;;;4961208;28;20735;-79
2023/05/13 03:58:27;;;;;;;9.68;6.35;;;;;;;;;;4954949;28;20031;-80
2023/05/13 04:00:53;;;;;;;8.23;5.85;;;;;;;;;;4969937;28;20026;-78
2023/05/13 04:03:19;;;;;;;11.57;8.20;;;;;;;;;;4962652;28;20083;-78
2023/05/13 04:05:46;;;;;;;8.15;5.15;;;;;;;;;;4962814;28;20481;-79
2023/05/13 04:08:12;;;;;;;8.38;5.88;;;;;;;;;;4959593;28;20019;-79
2023/05/13 04:10:38;;;;;;;7.60;5.47;;;;;;;;;;4961655;28;20110;-80
2023/05/13 04:13:04;;;;;;;8.00;5.75;;;;;;;;;;4964557;28;20027;-79
2023/05/13 04:15:30;;;;;;;9.68;5.80;;;;;;;;;;4959640;28;20034;-79
2023/05/13 04:17:57;;;;;;;11.48;6.60;;;;;;;;;;4960434;28;20023;-79
2023/05/13 04:20:23;;;;;;;14.20;9.15;;;;;;;;;;4966528;28;20019;-79
2023/05/13 04:22:49;;;;;;;10.18;6.45;;;;;;;;;;4956698;28;20125;-79
2023/05/13 04:25:15;;;;;;;10.93;8.90;;;;;;;;;;4972722;28;20074;-79
2023/05/13 04:27:41;;;;;;;12.95;8.55;;;;;;;;;;4953918;28;20062;-80
2023/05/13 04:30:08;;;;;;;10.50;8.38;;;;;;;;;;4957642;28;20401;-80
2023/05/13 04:32:34;;;;;;;10.57;5.63;;;;;;;;;;4968896;28;20725;-80
2023/05/13 04:35:00;;;;;;;8.07;5.32;;;;;;;;;;4958772;28;20070;-79
2023/05/13 04:37:26;;;;;;;9.75;6.97;;;;;;;;;;4968000;28;20023;-79
2023/05/13 04:39:52;;;;;;;8.77;5.82;;;;;;;;;;4970163;28;20114;-79
2023/05/13 04:42:18;;;;;;;12.43;8.43;;;;;;;;;;4951548;28;20051;-80
2023/05/13 04:44:44;;;;;;;10.20;4.95;;;;;;;;;;4942213;29;20034;-80
2023/05/13 04:47:11;;;;;;;9.15;5.82;;;;;;;;;;4939550;29;20039;-80
2023/05/13 04:49:37;;;;;;;11.98;8.50;;;;;;;;;;4937948;29;20027;-79
2023/05/13 04:52:03;;;;;;;12.00;9.25;;;;;;;;;;4941459;28;20888;-79
2023/05/13 04:54:30;;;;;;;10.00;7.00;;;;;;;;;;4958154;28;20027;-78
2023/05/13 04:56:57;;;;;;;10.43;8.35;;;;;;;;;;4967552;28;20166;-79
2023/05/13 04:59:23;;;;;;;11.88;6.82;;;;;;;;;;4955328;28;20027;-78
2023/05/13 05:01:49;;;;;;;14.75;8.55;;;;;;;;;;4959410;28;20019;-77
2023/05/13 05:04:15;;;;;;;10.05;6.18;;;;;;;;;;4967247;28;20042;-78
2023/05/13 05:06:41;;;;;;;9.50;6.18;;;;;;;;;;4954494;28;20364;-77
2023/05/13 05:09:07;;;;;;;10.98;8.13;;;;;;;;;;4965122;28;20023;-78
2023/05/13 05:11:33;;;;;;;9.68;7.60;;;;;;;;;;4953545;28;20486;-79
2023/05/13 05:13:59;;;;;;;14.52;8.35;;;;;;;;;;4954398;28;20033;-78
2023/05/13 05:16:25;;;;;;;9.48;6.85;;;;;;;;;;4949897;29;20031;-77
2023/05/13 05:18:51;;;;;;;11.73;8.57;;;;;;;;;;4965686;28;20047;-79
2023/05/13 05:21:17;;;;;;;13.70;5.25;;;;;;;;;;4954866;28;20027;-80
2023/05/13 05:23:43;;;;;;;11.77;8.98;;;;;;;;;;4964723;28;20086;-78
2023/05/13 05:26:09;;;;;;;16.90;9.77;;;;;;;;;;4972153;28;20038;-78
2023/05/13 05:28:38;;;;;;;10.80;7.30;;;;;;;;;;4967426;28;20018;-80
2023/05/13 05:31:04;;;;;;;9.57;5.85;;;;;;;;;;4943805;29;20031;-78
2023/05/13 05:33:30;;;;;;;10.98;7.68;;;;;;;;;;4947884;29;20498;-79
2023/05/13 05:35:56;;;;;;;6.68;4.43;;;;;;;;;;4935781;29;20146;-79
2023/05/13 05:38:25;;;;;;;8.73;5.68;;;;;;;;;;4965318;28;20043;-78
2023/05/13 05:40:51;;;;;;;8.38;6.95;;;;;;;;;;4954668;28;20026;-79
2023/05/13 05:43:17;;;;;;;12.07;8.82;;;;;;;;;;4973618;28;20069;-79
2023/05/13 05:45:43;;;;;;;8.38;5.70;;;;;;;;;;4972752;28;20050;-78
2023/05/13 05:48:09;;;;;;;15.30;6.57;;;;;;;;;;4956631;28;20019;-78
2023/05/13 05:50:35;;;;;;;11.13;7.28;;;;;;;;;;4969631;28;20452;-78
2023/05/13 05:53:02;;;;;;;10.05;8.20;;;;;;;;;;4970759;28;20028;-78
2023/05/13 05:55:30;;;;;;;13.10;8.68;;;;;;;;;;4967831;28;20027;-79
2023/05/13 05:57:56;;;;;;;13.65;8.98;;;;;;;;;;4961869;28;20049;-78
2023/05/13 06:00:22;;;;;;;13.82;9.05;;;;;;;;;;4968851;28;20023;-79
2023/05/13 06:02:49;;;;;;;12.93;7.05;;;;;;;;;;4956983;28;20023;-79
2023/05/13 06:05:16;;;;;;;10.82;6.88;;;;;;;;;;4973021;28;20023;-78
2023/05/13 06:07:42;;;;;;;12.10;8.35;;;;;;;;;;4968849;28;20037;-80
2023/05/13 06:10:08;;;;;;;10.90;8.38;;;;;;;;;;4974449;28;20027;-80
2023/05/13 06:12:35;;;;;;;10.68;5.80;;;;;;;;;;4956307;28;20515;-81
2023/05/13 06:15:01;;;;;;;9.77;6.30;;;;;;;;;;4956779;28;20027;-78
2023/05/13 06:17:27;;;;;;;7.20;4.75;;;;;;;;;;4949083;28;20033;-78
2023/05/13 06:19:53;;;;;;;11.40;4.35;;;;;;;;;;4955026;28;20030;-79
2023/05/13 06:22:19;;;;;;;10.82;7.55;;;;;;;;;;4970984;28;20041;-80
2023/05/13 06:24:45;;;;;;;9.70;7.30;;;;;;;;;;4969956;28;20027;-79
2023/05/13 06:27:11;;;;;;;12.32;7.65;;;;;;;;;;4965302;28;20026;-80
2023/05/13 06:29:37;;;;;;;17.25;7.20;;;;;;;;;;4953781;28;20029;-79
2023/05/13 06:32:03;;;;;;;11.98;7.30;;;;;;;;;;4969450;28;20074;-80
2023/05/13 06:34:29;;;;;;;10.18;7.53;;;;;;;;;;4970999;28;20134;-78
2023/05/13 06:36:55;;;;;;;8.48;5.47;;;;;;;;;;4969993;28;20489;-81
2023/05/13 06:39:23;;;;;;;14.27;7.43;;;;;;;;;;4958135;28;20031;-80
2023/05/13 06:41:49;;;;;;;10.45;7.97;;;;;;;;;;4963807;28;20030;-79
2023/05/13 06:44:15;;;;;;;10.88;6.47;;;;;;;;;;4957683;28;20078;-79
2023/05/13 06:46:41;;;;;;;11.23;6.25;;;;;;;;;;4970897;28;20031;-81
2023/05/13 06:49:07;;;;;;;12.52;5.75;;;;;;;;;;4971251;28;20027;-80
2023/05/13 06:51:34;;;;;;;11.35;7.43;;;;;;;;;;4959000;28;20071;-80
2023/05/13 06:54:00;;;;;;;11.43;6.72;;;;;;;;;;4940324;28;20035;-80
2023/05/13 06:56:29;;;;;;;9.93;5.55;;;;;;;;;;4966500;28;20031;-80
2023/05/13 06:58:56;;;;;;;9.80;6.35;;;;;;;;;;4960139;28;20132;-79
2023/05/13 07:01:22;;;;;;;14.02;7.65;;;;;;;;;;4945542;28;20022;-80
2023/05/13 07:03:48;;;;;;;10.68;6.18;;;;;;;;;;4947839;29;20043;-81
2023/05/13 07:06:14;;;;;;;8.93;5.60;;;;;;;;;;4968802;28;20026;-80
2023/05/13 07:08:40;;;;;;;14.55;6.50;;;;;;;;;;4954680;28;20031;-81
2023/05/13 07:11:06;;;;;;;10.18;6.50;;;;;;;;;;4951369;28;20035;-79
2023/05/13 07:13:33;;;;;;;8.13;4.32;;;;;;;;;;4951077;28;20042;-77
2023/05/13 07:16:01;;;;;;;6.75;4.65;;;;;;;;;;4955251;28;20062;-79
2023/05/13 07:18:27;;;;;;;7.75;5.03;;;;;;;;;;4950312;28;20030;-80
2023/05/13 07:20:53;;;;;;;7.60;5.07;;;;;;;;;;4961971;28;20033;-80
2023/05/13 07:23:19;;;;;;;10.57;5.25;;;;;;;;;;4967213;28;20033;-79
2023/05/13 07:25:45;;;;;;;8.07;5.05;;;;;;;;;;4969374;28;20117;-79
2023/05/13 07:28:11;;;;;;;7.78;4.65;;;;;;;;;;4970646;28;20086;-79
2023/05/13 07:30:45;;;;;;;13.18;7.07;;;;;;;;;;4968268;28;20469;-79
2023/05/13 07:33:12;;;;;;;7.82;4.88;;;;;;;;;;4975840;28;20026;-80
2023/05/13 07:35:38;;;;;;;7.00;4.78;;;;;;;;;;4970603;28;20133;-79
2023/05/13 07:38:04;;;;;;;8.27;5.15;;;;;;;;;;4972958;28;20082;-80
2023/05/13 07:40:30;;;;;;;11.70;4.72;;;;;;;;;;4981541;28;20041;-79
2023/05/13 07:42:56;;;;;;;8.75;3.72;;;;;;;;;;4967078;28;20027;-80
2023/05/13 07:45:22;;;;;;;6.22;3.67;;;;;;;;;;4977539;28;20576;-80
2023/05/13 07:47:49;;;;;;;5.90;3.60;;;;;;;;;;4975620;28;20029;-80
2023/05/13 07:50:15;;;;;;;5.97;3.85;;;;;;;;;;4957789;28;20039;-79
2023/05/13 07:52:42;;;;;;;5.85;3.55;;;;;;;;;;4943999;28;20023;-80
2023/05/13 07:55:09;;;;;;;12.73;4.00;;;;;;;;;;4960772;28;20126;-80
2023/05/13 07:57:35;;;;;;;6.57;4.03;;;;;;;;;;4966310;28;20039;-80
2023/05/13 08:00:02;;;;;;;5.75;3.70;;;;;;;;;;4959666;28;20478;-80
2023/05/13 08:02:33;;;;;;;6.88;3.70;;;;;;;;;;4971283;28;20685;-81
2023/05/13 08:04:59;;;;;;;10.00;4.07;;;;;;;;;;4951878;28;20094;-80
2023/05/13 08:07:25;;;;;;;6.10;3.92;;;;;;;;;;4936008;29;20027;-79
2023/05/13 08:09:51;;;;;;;5.50;3.10;;;;;;;;;;4938536;28;20046;-79
2023/05/13 08:12:17;;;;;;;7.38;3.95;;;;;;;;;;4941431;28;20023;-78
2023/05/13 08:14:43;;;;;;;13.07;4.03;;;;;;;;;;4952857;28;20059;-78
2023/05/13 08:17:10;;;;;;;9.85;3.88;;;;;;;;;;4954876;28;20026;-78
2023/05/13 08:19:36;;;;;;;14.02;4.57;;;;;;;;;;4966680;28;20102;-79
2023/05/13 08:22:02;;;;;;;6.90;3.38;;;;;;;;;;4960989;28;20035;-77
2023/05/13 08:24:28;;;;;;;9.15;3.88;;;;;;;;;;4943775;28;20069;-79
2023/05/13 08:26:55;;;;;;;7.82;4.05;;;;;;;;;;4958506;28;20462;-79
2023/05/13 08:29:21;;;;;;;9.65;4.22;;;;;;;;;;4941982;28;20027;-79
2023/05/13 08:31:47;;;;;;;11.43;4.43;;;;;;;;;;4956930;28;20102;-79
2023/05/13 08:34:13;;;;;;;7.68;3.58;;;;;;;;;;4966500;28;20027;-80
2023/05/13 08:36:40;;;;;;;7.57;3.35;;;;;;;;;;4970919;28;20027;-80
2023/05/13 08:39:06;;;;;;;8.27;4.03;;;;;;;;;;4943895;28;20444;-80
2023/05/13 08:41:33;;;;;;;7.18;3.38;;;;;;;;;;4952761;28;20078;-80
2023/05/13 08:44:00;;;;;;;6.82;3.40;;;;;;;;;;4953509;28;20121;-79
2023/05/13 08:46:27;;;;;;;5.80;3.40;;;;;;;;;;4954004;28;20046;-80
2023/05/13 08:48:55;;;;;;;6.22;3.08;;;;;;;;;;4958090;28;20023;-81
2023/05/13 08:51:21;;;;;;;5.90;3.05;;;;;;;;;;4964943;28;20057;-80
2023/05/13 08:53:47;;;;;;;6.55;3.00;;;;;;;;;;4956247;28;20039;-80
2023/05/13 08:56:13;;;;;;;8.40;3.50;;;;;;;;;;4961410;28;20051;-79
2023/05/13 08:58:41;;;;;;;6.47;2.90;;;;;;;;;;4955395;28;20030;-78
2023/05/13 09:01:08;;;;;;;5.13;3.10;;;;;;;;;;4968316;28;20041;-82
2023/05/13 09:03:39;;;;;;;7.35;3.78;;;;;;;;;;4965477;28;20020;-81
2023/05/13 09:06:05;;;;;;;6.18;2.85;;;;;;;;;;4954559;28;20348;-80
2023/05/13 09:08:32;;;;;;;9.38;3.38;;;;;;;;;;4964181;28;20035;-80
2023/05/13 09:10:58;;;;;;;5.20;3.28;;;;;;;;;;4946691;28;20031;-79
2023/05/13 09:13:24;;;;;;;4.95;2.80;;;;;;;;;;4955957;28;20410;-79
2023/05/13 09:15:50;;;;;;;5.15;2.95;;;;;;;;;;4964152;28;20784;-79
2023/05/13 09:18:17;;;;;;;6.78;2.95;;;;;;;;;;4971463;28;20085;-78
2023/05/13 09:20:43;;;;;;;6.97;3.30;;;;;;;;;;4968141;28;20035;-80
2023/05/13 09:23:10;;;;;;;6.90;3.80;;;;;;;;;;4946034;28;20031;-79
2023/05/13 09:25:37;;;;;;;6.65;3.20;;;;;;;;;;4942059;28;20026;-82
2023/05/13 09:28:04;;;;;;;7.45;3.22;;;;;;;;;;4965231;28;20465;-81
2023/05/13 09:30:33;;;;;;;7.25;3.35;;;;;;;;;;4962635;28;20030;-81
2023/05/13 09:33:19;;;;;;;5.07;3.25;;;;;;;;;;4960657;28;20034;-80
2023/05/13 09:35:49;;;;;;;6.88;3.58;;;;;;;;;;4950978;28;20043;-77
2023/05/13 09:38:17;;;;;;;5.60;3.30;;;;;;;;;;4947696;28;20065;-77
2023/05/13 09:40:50;;;;;;;12.02;3.75;;;;;;;;;;4963362;28;20042;-78
2023/05/13 09:43:17;;;;;;;14.95;5.35;;;;;;;;;;4964493;28;20091;-78
2023/05/13 09:45:43;;;;;;;8.05;3.42;;;;;;;;;;4958709;28;20559;-78
2023/05/13 09:48:10;;;;;;;9.60;3.72;;;;;;;;;;4962954;28;20034;-76
2023/05/13 09:50:46;;;;;;;8.30;3.20;;;;;;;;;;4962603;28;20615;-82
2023/05/13 09:53:14;;;;;;;7.82;4.15;;;;;;;;;;4959298;28;20027;-80
2023/05/13 09:55:50;;;;;;;6.38;3.20;;;;;;;;;;4965690;28;20057;-79
2023/05/13 09:58:17;;;;;;;6.85;3.35;;;;;;;;;;4949109;28;20031;-79
2023/05/13 10:00:44;;;;;;;8.65;4.20;;;;;;;;;;4961522;28;20057;-79
2023/05/13 10:03:10;;;;;;;8.20;3.90;;;;;;;;;;4959568;28;20090;-80
2023/05/13 10:05:38;;;;;;;7.93;3.60;;;;;;;;;;4961613;28;20039;-78
2023/05/13 10:08:04;;;;;;;9.73;3.47;;;;;;;;;;4964158;28;20023;-79
2023/05/13 10:10:31;;;;;;;8.90;3.33;;;;;;;;;;4944476;28;20031;-78
2023/05/13 10:13:03;;;;;;;8.43;4.18;;;;;;;;;;4967617;28;20063;-77
2023/05/13 10:15:30;;;;;;;6.55;3.33;;;;;;;;;;4959752;28;20087;-79
2023/05/13 10:17:57;;;;;;;8.38;4.38;;;;;;;;;;4964383;28;20714;-79
2023/05/13 10:20:25;;;;;;;5.93;3.95;;;;;;;;;;4967458;28;20054;-76
2023/05/13 10:22:51;;;;;;;11.05;4.40;;;;;;;;;;4966341;28;20292;-79
2023/05/13 10:25:18;;;;;;;10.07;3.90;;;;;;;;;;4963834;28;20041;-80
2023/05/13 10:27:44;;;;;;;6.75;3.63;;;;;;;;;;4968183;28;20051;-78
2023/05/13 10:30:11;;;;;;;7.13;3.88;;;;;;;;;;4967797;28;21223;-79
2023/05/13 10:32:41;;;;;;;8.23;3.47;;;;;;;;;;4957317;28;20022;-80
2023/05/13 10:35:12;;;;;;;8.05;3.80;;;;;;;;;;4974011;28;20055;-79
2023/05/13 10:37:49;;;;;;;8.20;4.10;;;;;;;;;;4970081;28;20027;-80
2023/05/13 10:40:15;;;;;;;9.52;3.97;;;;;;;;;;4967453;28;20030;-80
2023/05/13 10:42:42;;;;;;;7.45;3.50;;;;;;;;;;4959046;28;20027;-81
2023/05/13 10:45:09;;;;;;;8.95;3.58;;;;;;;;;;4973342;28;20082;-78
2023/05/13 10:47:36;;;;;;;10.23;3.72;;;;;;;;;;4969457;28;20088;-77
2023/05/13 10:50:06;;;;;;;7.28;3.28;;;;;;;;;;4963738;28;20356;-79
2023/05/13 10:52:47;;;;;;;8.23;3.08;;;;;;;;;;4962206;28;20098;-79
2023/05/13 10:55:18;;;;;;;6.90;2.70;;;;;;;;;;4970190;28;20042;-77
2023/05/13 10:58:04;;;;;;;4.03;2.60;;;;;;;;;;4957846;28;20027;-79
2023/05/13 11:00:31;;;;;;;7.57;3.13;;;;;;;;;;4954937;28;20086;-78
2023/05/13 11:02:57;;;;;;;7.20;3.17;;;;;;;;;;4974156;28;20033;-80
2023/05/13 11:05:23;;;;;;;6.85;3.05;;;;;;;;;;4971885;28;20037;-79
2023/05/13 11:07:56;;;;;;;6.70;3.28;;;;;;;;;;4961857;28;20030;-80
2023/05/13 11:10:31;;;;;;;6.13;2.65;;;;;;;;;;4978114;28;20034;-84
2023/05/13 11:13:15;;;;;;;6.82;3.22;;;;;;;;;;4966480;28;20080;-82
2023/05/13 11:15:45;;;;;;;6.20;2.78;;;;;;;;;;4977323;28;20034;-85
2023/05/13 11:18:15;;;;;;;5.25;3.45;;;;;;;;;;4957270;29;20505;-86
2023/05/13 11:20:45;;;;;;;6.50;3.15;;;;;;;;;;4955268;28;20031;-82
2023/05/13 11:23:12;;;;;;;;;;;;;;;;;;4961365;28;20035;-86
2023/05/13 11:25:38;;;;;;;8.35;3.40;;;;;;;;;;4958556;28;19922;-82
2023/05/13 11:28:05;;;;;;;4.97;2.70;;;;;;;;;;4958683;28;20034;-86
2023/05/13 11:30:31;;;;;;;5.03;2.90;;;;;;;;;;4976284;28;20037;-85
2023/05/13 11:32:58;;;;;;;6.00;2.50;;;;;;;;;;4959675;28;20027;-83
2023/05/13 11:35:30;;;;;;;8.77;2.85;;;;;;;;;;4957618;28;20053;-84
2023/05/13 11:37:57;;;;;;;4.70;2.40;;;;;;;;;;4948055;28;20022;-85
2023/05/13 11:40:23;;;;;;;6.20;2.83;;;;;;;;;;4953118;28;20478;-86
2023/05/13 11:42:50;;;;;;;6.68;2.90;;;;;;;;;;4973768;28;20019;-85
2023/05/13 11:45:17;;;;;;;7.88;2.78;;;;;;;;;;4945454;28;20093;-83
2023/05/13 11:47:45;;;;;;;6.97;3.63;;;;;;;;;;4970767;28;20035;-85
2023/05/13 11:50:26;;;;;;;6.75;2.88;;;;;;;;;;4954203;28;20622;-86
2023/05/13 11:52:54;;;;;;;6.72;3.03;;;;;;;;;;4974779;28;20086;-84
2023/05/13 11:55:30;;;;;;;7.32;3.40;;;;;;;;;;4957644;28;20038;-86
2023/05/13 11:57:57;;;;;;;5.43;2.60;;;;;;;;;;4960358;28;20030;-86
2023/05/13 12:00:25;;;;;;;6.22;3.05;;;;;;;;;;4944614;28;20086;-80
2023/05/13 12:02:58;;;;;;;5.00;3.05;;;;;;;;;;4972127;28;20030;-85
2023/05/13 12:05:27;;;;;;;5.95;2.90;;;;;;;;;;4951464;29;20430;-85
2023/05/13 12:07:57;;;;;;;8.57;2.93;;;;;;;;;;4961353;28;20031;-84
2023/05/13 12:10:24;;;;;;;5.93;3.00;;;;;;;;;;4968595;28;20008;-87
2023/05/13 12:12:51;;;;;;;6.78;3.55;;;;;;;;;;4951723;28;20054;-85
2023/05/13 12:15:20;;;;;;;8.32;3.17;;;;;;;;;;4978858;28;20769;-83
2023/05/13 12:17:47;;;;;;;5.40;2.97;;;;;;;;;;4978645;28;20496;-85
2023/05/13 12:20:13;;;;;;;8.90;2.88;;;;;;;;;;4959367;28;20043;-78
2023/05/13 12:22:45;;;;;;;5.93;2.78;;;;;;;;;;4976786;28;20022;-80
2023/05/13 12:25:30;;;;;;;4.47;2.63;;;;;;;;;;4974936;28;20445;-86
2023/05/13 12:27:56;;;;;;;5.18;2.97;;;;;;;;;;4973710;28;20035;-83
2023/05/13 12:30:22;;;;;;;5.22;2.58;;;;;;;;;;4979331;28;20109;-85
2023/05/13 12:32:48;;;;;;;5.13;3.15;;;;;;;;;;4963209;28;20054;-86
2023/05/13 12:35:15;;;;;;;3.78;2.42;;;;;;;;;;4982369;28;20523;-83
2023/05/13 12:37:42;;;;;;;5.65;2.72;;;;;;;;;;4988663;28;20086;-86
2023/05/13 12:40:09;;;;;;;10.52;3.63;;;;;;;;;;4961817;29;20035;-86
2023/05/13 12:42:36;;;;;;;9.45;3.85;;;;;;;;;;4978406;28;20053;-86
2023/05/13 12:45:03;;;;;;;5.30;2.85;;;;;;;;;;4984022;28;20022;-88
2023/05/13 12:47:29;;;;;;;6.47;3.28;;;;;;;;;;4968083;28;20090;-85
2023/05/13 12:50:04;;;;;;;4.32;2.50;;;;;;;;;;4966845;28;20141;-87
2023/05/13 12:52:30;;;;;;;6.03;2.65;;;;;;;;;;4965679;28;20509;-85
2023/05/13 12:54:58;;;;;;;5.43;2.58;;;;;;;;;;4963699;28;20433;-86
2023/05/13 12:57:28;;;;;;;4.57;2.33;;;;;;;;;;4950219;28;20481;-86
2023/05/13 12:59:54;;;;;;;4.90;2.13;;;;;;;;;;4948998;28;20027;-85
2023/05/13 13:02:23;;;;;;;4.72;2.75;;;;;;;;;;4972346;28;20023;-85
2023/05/13 13:04:57;;;;;;;5.73;2.37;;;;;;;;;;4953944;28;20078;-85
2023/05/13 13:07:23;;;;;;;4.68;2.30;;;;;;;;;;4962662;28;20046;-85
2023/05/13 13:09:50;;;;;;;5.47;2.30;;;;;;;;;;4958830;28;20027;-85
2023/05/13 13:12:17;;;;;;;6.88;2.40;;;;;;;;;;4964132;28;20553;-81
2023/05/13 13:14:43;;;;;;;6.03;2.50;;;;;;;;;;4976704;28;20070;-88
2023/05/13 13:17:09;;;;;;;5.05;2.50;;;;;;;;;;4964911;28;20033;-87
2023/05/13 13:19:36;;;;;;;5.75;2.17;;;;;;;;;;4967841;28;20031;-87
2023/05/13 13:22:02;;;;;;;4.28;2.15;;;;;;;;;;4951814;29;20027;-86
2023/05/13 13:24:37;;;;;;;4.72;2.58;;;;;;;;;;4980777;28;20023;-87
2023/05/13 13:27:11;;;;;;;5.40;2.25;;;;;;;;;;4967192;28;20045;-84
2023/05/13 13:29:43;;;;;;;3.67;2.20;;;;;;;;;;4957568;28;20062;-88
2023/05/13 13:32:12;;;;;;;4.15;2.17;;;;;;;;;;4968420;28;20041;-86
2023/05/13 13:34:41;;;;;;;4.03;2.27;;;;;;;;;;4963713;29;20086;-86
2023/05/13 13:37:13;;;;;;;8.40;2.50;;;;;;;;;;4941585;29;20051;-86
2023/05/13 13:39:43;;;;;;;4.10;2.00;;;;;;;;;;4949286;29;20054;-86
2023/05/13 13:42:11;;;;;;;3.95;2.47;;;;;;;;;;4943857;29;20079;-85
2023/05/13 13:44:38;;;;;;;6.07;2.38;;;;;;;;;;4954078;29;20142;-84
2023/05/13 13:47:04;;;;;;;5.88;2.30;;;;;;;;;;4955716;29;20023;-85
2023/05/13 13:49:31;;;;;;;4.88;2.05;;;;;;;;;;4947028;29;20003;-84
2023/05/13 13:52:04;;;;;;;3.92;2.50;;;;;;;;;;4936580;29;20027;-84
2023/05/13 13:54:41;;;;;;;7.22;2.78;;;;;;;;;;4930055;29;20031;-85
2023/05/13 13:57:07;;;;;;;6.30;2.72;;;;;;;;;;4933924;29;20086;-84
2023/05/13 13:59:33;;;;;;;4.45;2.53;;;;;;;;;;4958870;29;20035;-85
2023/05/13 14:02:01;;;;;;;6.15;2.55;;;;;;;;;;4962333;28;20090;-84
2023/05/13 14:04:33;;;;;;;5.45;2.58;;;;;;;;;;4944369;29;20039;-86
2023/05/13 14:07:00;;;;;;;4.57;2.20;;;;;;;;;;4943540;29;20081;-84
2023/05/13 14:09:33;;;;;;;5.57;3.10;;;;;;;;;;4961001;29;20020;-83
2023/05/13 14:12:05;;;;;;;6.53;2.47;;;;;;;;;;4943145;29;20477;-82
2023/05/13 14:14:37;;;;;;;3.38;2.15;;;;;;;;;;4940293;29;20509;-82
2023/05/13 14:17:12;;;;;;;4.38;2.50;;;;;;;;;;4954022;29;20026;-86
2023/05/13 14:19:38;;;;;;;4.38;2.28;;;;;;;;;;4941721;29;20023;-84
2023/05/13 14:22:08;;;;;;;5.40;2.22;;;;;;;;;;4954142;29;20032;-84
2023/05/13 14:24:50;;;;;;;3.80;2.20;;;;;;;;;;4946940;29;20098;-88
2023/05/13 14:27:17;;;;;;;4.90;2.92;;;;;;;;;;4948111;29;20031;-85
2023/05/13 14:29:43;;;;;;;4.82;2.60;;;;;;;;;;4941778;29;20569;-85
2023/05/13 14:32:09;;;;;;;5.25;2.65;;;;;;;;;;4953605;29;20090;-82
2023/05/13 14:34:38;;;;;;;7.05;2.88;;;;;;;;;;4926718;29;20107;-86
2023/05/13 14:37:04;;;;;;;4.30;2.30;;;;;;;;;;4942650;29;20112;-85
2023/05/13 14:39:32;;;;;;;5.55;2.47;;;;;;;;;;4933306;29;20038;-86
2023/05/13 14:41:59;;;;;;;5.80;2.28;;;;;;;;;;4948324;29;20071;-87